Aviation Digital Data Service (ADDS)

Output produced by METARs form (0243 UTC 24 July 2017)
found at http://www.aviationweather.gov/adds/metars/
 
KLAF 232320Z 2400/2424 31004KT P6SM SCT040 
     FM240400 00000KT P6SM SCT200 
     FM241000 35004KT 5SM BR SCT040 
     FM241300 01006KT P6SM BKN035 
     FM241700 36007KT P6SM SCT050 AMD LTD TO CLD VIS AND WIND 2401/2413
       
KLAL 232322Z 2400/2424 VRB03KT P6SM FEW030 BKN100 BKN250 
     FM241400 23005KT P6SM VCTS SCT025CB BKN100 
     FM242200 VRB04KT P6SM VCSH SCT040 BKN100
       
KLAN 232345Z 2400/2424 32009KT P6SM BKN100 BKN200 
     FM240600 34008KT P6SM BKN025 
     FM241000 35009KT P6SM BKN010 
     FM241500 36010KT P6SM BKN025 
     FM241800 36010KT P6SM BKN035
       
KLAR 240018Z 2400/2424 17010KT P6SM SKC 
     FM241600 27007KT P6SM SKC
       
KLAS 240222Z 2402/2506 12007KT P6SM SCT150 SCT250 
     FM240245 13015G30KT P6SM SCT100 BKN150 
     FM240400 16010KT P6SM FEW100 SCT150 
     FM240800 19008KT P6SM SCT150 BKN250 
     FM241800 17010KT P6SM SCT100 BKN150 
     PROB30 2420/2424 VRB20G30KT TSRA BKN100CB
       
KLAX 232333Z 2400/2506 26010KT P6SM FEW008 FEW090 
     FM240800 VRB03KT P6SM OVC008 
     FM241800 26010KT P6SM SCT012 
     FM250000 26010KT P6SM BKN009 
     FM250500 VRB03KT P6SM OVC009
       
KLBB 232321Z 2400/2424 10011KT P6SM BKN120
       
KLBE 232329Z 2400/2424 23005KT P6SM VCTS SCT015 BKN040CB 
     TEMPO 2400/2404 3SM -TSRA BKN040CB 
     FM240500 25004KT 3SM BR VCSH BKN015 
     FM240700 26004KT 2SM BR BKN008 
     FM241400 27006KT P6SM SCT025 
     FM241800 27009KT P6SM VCTS BKN060CB
       
KLBF 232320Z 2400/2424 VRB06KT P6SM FEW090 
     FM241400 15006KT P6SM SKC 
     FM241700 18012G18KT P6SM SKC
       
KLBL 232320Z 2400/2424 08007KT P6SM SCT200 
     FM241000 VRB03KT P6SM FEW250 
     FM242100 15011KT P6SM SCT150
       
KLBT 240009Z 2400/2424 24010KT 5SM -SHRA SCT015 BKN045 OVC090 
     FM240130 22004KT P6SM BKN080 OVC150 
     FM241400 24008KT P6SM BKN250 
     FM241800 22009KT 6SM -TSRA SCT020 BKN035CB 
     PROB30 2418/2424 VRB20G30KT 3SM TSRA SCT015 BKN025CB OVC040
       
KLCK 232320Z 2400/2424 23006KT P6SM VCSH BKN045 
     TEMPO 2400/2402 29020G30KT 2SM TSRA BR BKN025CB 
     FM240200 30004KT P6SM SCT150 
     FM240700 VRB03KT 5SM BR SCT250 
     FM241000 27004KT 2SM BR SCT250 
     FM241300 28005KT P6SM SCT030 
     FM242200 34008KT P6SM SCT050
       
KLCH 240044Z 2401/2424 VRB04KT P6SM -RA SCT040 BKN080 
     FM240200 23004KT P6SM FEW030 SCT045 OVC250 
     FM241400 24009KT P6SM VCSH SCT035 BKN100 
     FM241800 23009G15KT P6SM SCT040 BKN250
       
KLEB 232320Z 2400/2424 VRB02KT P6SM SCT070 BKN120 
     FM240900 VRB03KT P6SM -RA BKN035 
     FM241200 05005KT 4SM -RA BR OVC015
       
KLEE 232326Z 2400/2424 21005KT P6SM BKN200 
     FM241400 22006KT P6SM SCT025 BKN200 
     FM241700 23007KT P6SM VCTS SCT040CB BKN120
       
KLEX 232320Z 2400/2424 27008KT P6SM FEW035 BKN250 
     FM240200 VRB04KT P6SM FEW040 SCT250 
     FM240900 VRB03KT 3SM BR FEW045 SCT130 
     FM241400 26008KT P6SM FEW040 SCT250 
     PROB30 2419/2424 3SM -TSRA BKN040CB
       
TAF KLFI 240100Z 2401/2507 23009KT 9999 BKN045 QNH2973INS 
     TEMPO 2402/2406 24015G25KT 510102 
     BECMG 2409/2410 24006KT 9999 BKN010 QNH2976INS 
     BECMG 2412/2413 25009KT 9999 FEW045 QNH2980INS TX32/2421Z TN24/2409Z
       
KLFK 232341Z 2400/2424 17007KT P6SM VCTS SCT040CB 
     TEMPO 2400/2404 VRB15G25KT 3SM -TSRA BR OVC030CB 
     FM240400 VRB03KT P6SM SCT045 BKN100 BKN250 
     TEMPO 2410/2414 3SM BR BKN008 
     FM241400 23005KT P6SM BKN015 
     FM241600 24006KT P6SM VCTS BKN030CB OVC100
       
KLFT 232334Z 2400/2424 22010KT P6SM -RA SCT035 BKN100 
     FM240200 21006KT P6SM FEW040 BKN250 
     FM241400 23009KT P6SM VCTS SCT035CB BKN100 
     FM241800 24011KT P6SM VCSH SCT030 BKN250 
     TEMPO 2418/2422 5SM -TSRA BKN035 BKN050CB
       
KLGA 240237Z 2403/2424 09010KT 6SM -SHRA SCT025 
     TEMPO 2403/2406 BKN025 
     FM240600 08013KT 4SM SHRA BR OVC015 
     FM241000 06013KT 4SM SHRA OVC008 
     FM241500 04014G20KT 6SM -SHRA OVC015 
     FM241900 05010KT P6SM BKN025 
     FM242200 04009KT P6SM BKN050
       
KLGB 232333Z 2400/2424 30006KT P6SM SKC 
     FM240500 VRB03KT P6SM SKC 
     FM240800 VRB03KT P6SM OVC010 
     FM241700 21006KT P6SM SKC
       
KLGU 232326Z 2400/2424 VRB05KT P6SM FEW100 BKN180
       
KLIT 232320Z 2400/2424 VRB05KT P6SM VCTS SCT045CB BKN250 
     FM240500 VRB03KT P6SM SCT100 BKN250 
     TEMPO 2410/2414 5SM BR 
     FM241500 23005KT P6SM SCT045 SCT250
       
KLLQ 240030Z 2400/2424 22005KT P6SM VCTS SCT035CB BKN120 
     FM240400 VRB03KT P6SM SCT120 BKN250 
     TEMPO 2410/2414 5SM BR 
     FM241500 24005KT P6SM SCT045 SCT250
       
KLMT 232334Z 2400/2424 34010KT P6SM BKN100 
     FM240500 VRB03KT P6SM SCT080
       
KLND 232326Z 2400/2424 VRB04KT P6SM SCT110 
     FM240200 24005KT P6SM SKC 
     FM242100 29008KT P6SM SCT120 BKN150
       
KLNK 232329Z 2400/2424 02008KT P6SM SKC 
     FM240400 04004KT P6SM SKC 
     FM241300 10004KT P6SM FEW200 
     FM242000 14008KT P6SM FEW250
       
KLNS 240203Z 2402/2424 00000KT P6SM FEW060 OVC100 
     FM240600 VRB03KT 2SM SHRA BR OVC015 
     FM241000 31004KT 4SM BR OVC007 
     FM241400 31007KT P6SM SCT250
       
KLOZ 232339Z 2400/2424 26006KT P6SM VCTS SCT045CB 
     FM240300 VRB03KT P6SM BKN050 
     FM241000 VRB03KT 4SM BR SCT060 
     FM241200 26007KT P6SM FEW150
       
KLRD 232329Z 2400/2424 14016G24KT P6SM FEW080 
     FM240700 15011KT P6SM FEW020 SCT250 
     FM241400 16014G20KT P6SM SCT200
       
TAF AMD KLRF 240225Z 2402/2505 20006KT 9999 FEW040 QNH2981INS 
     TEMPO 2403/2405 8000 -TSRA SCT040CB 
     BECMG 2404/2405 19009KT 8000 -SHRA BKN020 QNH2988INS 
     BECMG 2406/2407 VRB06KT 9999 NSW SCT030 QNH2989INS 
     TEMPO 2419/2422 20012KT 8000 -TSRA BKN040CB TX37/2421Z TN25/2412Z
       
KLRU 232320Z 2400/2424 03010G20KT P6SM VCTS SCT060CB BKN120 BKN250 
     TEMPO 2400/2402 VRB27G37KT 5SM -TSRA BKN050CB OVC100 
     FM240900 06008KT P6SM SCT060 BKN100 BKN200 
     FM241400 22009KT P6SM FEW060 BKN100 BKN200
       
KLSE 240200Z 2402/2424 01008KT P6SM BKN030 
     FM241000 03004KT 3SM BR SCT003 
     FM241300 04004KT P6SM SCT025 
     FM242000 11004KT P6SM SCT030
       
TAF KLSF 240100Z 2401/2507 23009KT 8000 -SHRA BKN030 BKN250 QNH2986INS 
     TEMPO 2401/2402 VRB15G30KT 4800 -TSRA BKN020CB 
     BECMG 2402/2403 22006KT 9999 NSW BKN010 BKN030 QNH2991INS 
     BECMG 2409/2410 20006KT 4800 BR SCT010 OVC020 QNH3000INS 
     BECMG 2414/2415 23009KT 9999 NSW BKN030 OVC100 QNH2996INS 
     BECMG 2417/2418 23009KT 8000 -SHRA BKN030 QNH2994INS 
     TEMPO 2420/2424 VRB15G25KT 4800 -TSRA OVC020CB 
     BECMG 2500/2501 21006KT 9999 NSW SCT025 QNH2993INS TX33/2420Z TN23/2411Z
       
TAF AMD KLSV 240234Z 2402/2505 12009KT 9999 FEW130 QNH2970INS 
     TEMPO 2402/2404 12012G18KT 
     BECMG 2403/2404 16012KT 9999 FEW130 QNH2975INS 
     TEMPO 2422/2504 17012G18KT TX40/2423Z TN26/2412Z
       
TAF AMD KLUF 240237Z 2402/2502 01015G20KT 9999 SCT100 QNH2972INS 
     TEMPO 2402/2404 VRB25G35KT VCTS BKN080CB 
     TEMPO 2404/2406 VRB25G35KT 8000 -TSRA BKN080CB 
     BECMG 2405/2406 26009KT 9999 VCSH SCT080 QNH2975INS 
     TEMPO 2407/2409 26015G25KT 8000 -SHRA VCTS BKN050CB 
     BECMG 2417/2418 22009KT 9999 NSW SCT080 QNH2993INS 
     BECMG 2420/2421 22012G20KT 9999 BKN080 QNH2987INS TX35/2403Z TN31/2413Z
       
KLVK 232320Z 2400/2424 28011KT P6SM SKC 
     FM240500 29005KT P6SM SKC 
     FM241400 29005KT P6SM SKC 
     FM242000 29012KT P6SM SKC
       
KLVM 240039Z 2401/2424 16009KT P6SM FEW040 FEW100 
     FM240200 23010KT P6SM SKC 
     FM241200 27010KT P6SM SKC 
     FM241800 32012KT P6SM SCT120
       
KLVS 240016Z 2400/2424 06010KT P6SM VCSH BKN070 
     TEMPO 2400/2402 VRB15KT 4SM -TSRA BKN060CB 
     FM240300 02007KT P6SM BKN070 
     FM241800 17010KT P6SM BKN060 
     FM242000 18012KT P6SM VCTS BKN060CB
       
KLWB 232333Z 2400/2424 27003KT P6SM BKN110 
     FM240400 27005KT P6SM VCSH BKN045 OVC100 
     FM240800 27005KT P6SM OVC023 
     FM241500 28007KT P6SM SCT045 SCT250
       
KLWS 232320Z 2400/2424 31007KT P6SM FEW070 FEW200 
     FM240100 30010G15KT P6SM FEW070 FEW250 
     FM240600 27005KT P6SM SKC 
     FM242100 33005KT P6SM FEW080
       
KLWT 232320Z 2400/2424 VRB06KT P6SM FEW110 FEW250
       
KLYH 232333Z 2400/2424 25004KT P6SM BKN120 
     FM240500 25004KT P6SM VCSH BKN050 BKN120 
     FM241300 27008KT P6SM SCT060 SCT250